sensor_id;sensor_type;location;lat;lon;timestamp;P1;durP1;ratioP1;P2;durP2;ratioP2
77332;SDS011;66408;51.326;12.070;2023-02-17T00:01:08;13.90;;;7.55;;
77332;SDS011;66408;51.326;12.070;2023-02-17T00:03:55;15.75;;;7.78;;
77332;SDS011;66408;51.326;12.070;2023-02-17T00:06:23;20.45;;;9.20;;
77332;SDS011;66408;51.326;12.070;2023-02-17T00:11:17;16.83;;;7.65;;
77332;SDS011;66408;51.326;12.070;2023-02-17T00:13:44;15.13;;;7.43;;
77332;SDS011;66408;51.326;12.070;2023-02-17T00:16:12;15.50;;;7.88;;
77332;SDS011;66408;51.326;12.070;2023-02-17T00:18:43;15.98;;;7.10;;
77332;SDS011;66408;51.326;12.070;2023-02-17T00:21:14;18.67;;;8.48;;
77332;SDS011;66408;51.326;12.070;2023-02-17T00:23:43;14.90;;;7.88;;
77332;SDS011;66408;51.326;12.070;2023-02-17T00:26:11;16.08;;;7.65;;
77332;SDS011;66408;51.326;12.070;2023-02-17T00:28:39;15.75;;;8.00;;
77332;SDS011;66408;51.326;12.070;2023-02-17T00:31:06;17.85;;;7.95;;
77332;SDS011;66408;51.326;12.070;2023-02-17T00:33:38;16.88;;;8.60;;
77332;SDS011;66408;51.326;12.070;2023-02-17T00:36:05;18.75;;;7.93;;
77332;SDS011;66408;51.326;12.070;2023-02-17T00:38:33;20.05;;;8.00;;
77332;SDS011;66408;51.326;12.070;2023-02-17T00:40:59;19.30;;;7.85;;
77332;SDS011;66408;51.326;12.070;2023-02-17T00:43:26;19.15;;;8.27;;
77332;SDS011;66408;51.326;12.070;2023-02-17T00:45:53;16.33;;;8.75;;
77332;SDS011;66408;51.326;12.070;2023-02-17T00:48:19;16.85;;;7.90;;
77332;SDS011;66408;51.326;12.070;2023-02-17T00:50:46;16.58;;;7.63;;
77332;SDS011;66408;51.326;12.070;2023-02-17T00:53:13;16.70;;;8.15;;
77332;SDS011;66408;51.326;12.070;2023-02-17T00:55:39;18.42;;;8.63;;
77332;SDS011;66408;51.326;12.070;2023-02-17T00:58:06;14.98;;;7.03;;
77332;SDS011;66408;51.326;12.070;2023-02-17T01:00:33;19.65;;;7.88;;
77332;SDS011;66408;51.326;12.070;2023-02-17T01:03:00;16.17;;;7.57;;
77332;SDS011;66408;51.326;12.070;2023-02-17T01:05:26;18.85;;;8.38;;
77332;SDS011;66408;51.326;12.070;2023-02-17T01:07:53;15.73;;;7.65;;
77332;SDS011;66408;51.326;12.070;2023-02-17T01:10:20;19.08;;;7.70;;
77332;SDS011;66408;51.326;12.070;2023-02-17T01:12:46;17.85;;;8.40;;
77332;SDS011;66408;51.326;12.070;2023-02-17T01:15:13;18.27;;;8.07;;
77332;SDS011;66408;51.326;12.070;2023-02-17T01:17:40;18.10;;;8.27;;
77332;SDS011;66408;51.326;12.070;2023-02-17T01:20:06;16.58;;;7.93;;
77332;SDS011;66408;51.326;12.070;2023-02-17T01:22:33;19.90;;;7.72;;
77332;SDS011;66408;51.326;12.070;2023-02-17T01:25:00;18.58;;;8.73;;
77332;SDS011;66408;51.326;12.070;2023-02-17T01:27:26;17.98;;;8.15;;
77332;SDS011;66408;51.326;12.070;2023-02-17T01:29:53;18.42;;;8.10;;
77332;SDS011;66408;51.326;12.070;2023-02-17T01:32:19;19.42;;;9.02;;
77332;SDS011;66408;51.326;12.070;2023-02-17T01:34:46;19.08;;;8.45;;
77332;SDS011;66408;51.326;12.070;2023-02-17T01:37:14;17.33;;;8.20;;
77332;SDS011;66408;51.326;12.070;2023-02-17T01:39:40;17.83;;;8.85;;
77332;SDS011;66408;51.326;12.070;2023-02-17T01:42:13;21.52;;;9.40;;
77332;SDS011;66408;51.326;12.070;2023-02-17T01:47:46;18.77;;;7.97;;
77332;SDS011;66408;51.326;12.070;2023-02-17T01:50:20;20.05;;;8.70;;
77332;SDS011;66408;51.326;12.070;2023-02-17T01:52:50;17.38;;;8.48;;
77332;SDS011;66408;51.326;12.070;2023-02-17T01:55:18;19.70;;;9.43;;
77332;SDS011;66408;51.326;12.070;2023-02-17T01:57:46;19.58;;;8.90;;
77332;SDS011;66408;51.326;12.070;2023-02-17T02:02:44;16.77;;;8.38;;
77332;SDS011;66408;51.326;12.070;2023-02-17T02:05:13;17.38;;;8.02;;
77332;SDS011;66408;51.326;12.070;2023-02-17T02:07:43;17.25;;;8.18;;
77332;SDS011;66408;51.326;12.070;2023-02-17T02:10:11;16.50;;;7.95;;
77332;SDS011;66408;51.326;12.070;2023-02-17T02:12:39;19.33;;;7.97;;
77332;SDS011;66408;51.326;12.070;2023-02-17T02:15:10;18.27;;;8.52;;
77332;SDS011;66408;51.326;12.070;2023-02-17T02:20:40;19.42;;;8.48;;
77332;SDS011;66408;51.326;12.070;2023-02-17T02:34:44;17.33;;;7.97;;
77332;SDS011;66408;51.326;12.070;2023-02-17T02:37:16;17.25;;;8.45;;
77332;SDS011;66408;51.326;12.070;2023-02-17T02:39:59;17.75;;;8.05;;
77332;SDS011;66408;51.326;12.070;2023-02-17T02:42:31;18.23;;;8.60;;
77332;SDS011;66408;51.326;12.070;2023-02-17T02:44:59;17.52;;;8.38;;
77332;SDS011;66408;51.326;12.070;2023-02-17T02:50:19;18.48;;;8.88;;
77332;SDS011;66408;51.326;12.070;2023-02-17T02:53:04;18.83;;;9.13;;
77332;SDS011;66408;51.326;12.070;2023-02-17T02:55:59;17.45;;;9.15;;
77332;SDS011;66408;51.326;12.070;2023-02-17T03:01:18;20.92;;;9.00;;
77332;SDS011;66408;51.326;12.070;2023-02-17T03:04:05;17.35;;;8.88;;
77332;SDS011;66408;51.326;12.070;2023-02-17T03:06:52;18.15;;;8.65;;
77332;SDS011;66408;51.326;12.070;2023-02-17T03:09:23;17.80;;;8.77;;
77332;SDS011;66408;51.326;12.070;2023-02-17T03:11:55;20.35;;;9.38;;
77332;SDS011;66408;51.326;12.070;2023-02-17T03:14:22;17.85;;;8.48;;
77332;SDS011;66408;51.326;12.070;2023-02-17T03:16:49;16.42;;;8.90;;
77332;SDS011;66408;51.326;12.070;2023-02-17T03:19:18;16.50;;;7.93;;
77332;SDS011;66408;51.326;12.070;2023-02-17T03:21:49;16.98;;;8.18;;
77332;SDS011;66408;51.326;12.070;2023-02-17T03:24:20;14.07;;;8.05;;
77332;SDS011;66408;51.326;12.070;2023-02-17T03:26:47;18.65;;;8.25;;
77332;SDS011;66408;51.326;12.070;2023-02-17T03:29:13;17.90;;;8.80;;
77332;SDS011;66408;51.326;12.070;2023-02-17T03:31:40;16.08;;;7.80;;
77332;SDS011;66408;51.326;12.070;2023-02-17T03:34:07;15.00;;;7.80;;
77332;SDS011;66408;51.326;12.070;2023-02-17T03:36:34;14.00;;;7.05;;
77332;SDS011;66408;51.326;12.070;2023-02-17T03:39:00;16.75;;;7.40;;
77332;SDS011;66408;51.326;12.070;2023-02-17T03:41:27;14.05;;;6.40;;
77332;SDS011;66408;51.326;12.070;2023-02-17T03:43:54;13.20;;;7.07;;
77332;SDS011;66408;51.326;12.070;2023-02-17T03:46:20;15.82;;;7.65;;
77332;SDS011;66408;51.326;12.070;2023-02-17T03:48:47;14.27;;;7.22;;
77332;SDS011;66408;51.326;12.070;2023-02-17T03:51:15;15.40;;;7.35;;
77332;SDS011;66408;51.326;12.070;2023-02-17T03:53:43;13.88;;;7.32;;
77332;SDS011;66408;51.326;12.070;2023-02-17T03:56:10;14.05;;;6.82;;
77332;SDS011;66408;51.326;12.070;2023-02-17T03:58:37;16.42;;;6.80;;
77332;SDS011;66408;51.326;12.070;2023-02-17T04:01:04;14.15;;;6.88;;
77332;SDS011;66408;51.326;12.070;2023-02-17T04:03:32;14.85;;;7.28;;
77332;SDS011;66408;51.326;12.070;2023-02-17T04:05:59;13.45;;;6.80;;
77332;SDS011;66408;51.326;12.070;2023-02-17T04:08:25;17.05;;;7.35;;
77332;SDS011;66408;51.326;12.070;2023-02-17T04:10:53;14.90;;;7.40;;
77332;SDS011;66408;51.326;12.070;2023-02-17T04:13:21;13.75;;;7.05;;
77332;SDS011;66408;51.326;12.070;2023-02-17T04:15:48;14.98;;;6.88;;
77332;SDS011;66408;51.326;12.070;2023-02-17T04:18:15;12.45;;;6.00;;
77332;SDS011;66408;51.326;12.070;2023-02-17T04:20:42;12.35;;;6.65;;
77332;SDS011;66408;51.326;12.070;2023-02-17T04:23:10;12.43;;;6.53;;
77332;SDS011;66408;51.326;12.070;2023-02-17T04:25:37;14.02;;;6.72;;
77332;SDS011;66408;51.326;12.070;2023-02-17T04:28:03;12.95;;;6.50;;
77332;SDS011;66408;51.326;12.070;2023-02-17T04:30:30;12.00;;;5.88;;
77332;SDS011;66408;51.326;12.070;2023-02-17T04:32:57;13.48;;;5.95;;
77332;SDS011;66408;51.326;12.070;2023-02-17T04:35:24;9.85;;;5.18;;
77332;SDS011;66408;51.326;12.070;2023-02-17T04:37:51;11.52;;;4.60;;
77332;SDS011;66408;51.326;12.070;2023-02-17T04:40:18;11.13;;;5.88;;
77332;SDS011;66408;51.326;12.070;2023-02-17T04:42:45;8.68;;;5.43;;
77332;SDS011;66408;51.326;12.070;2023-02-17T04:45:11;9.30;;;4.93;;
77332;SDS011;66408;51.326;12.070;2023-02-17T04:47:38;8.95;;;4.15;;
77332;SDS011;66408;51.326;12.070;2023-02-17T04:50:06;9.75;;;4.30;;
77332;SDS011;66408;51.326;12.070;2023-02-17T04:52:34;9.23;;;4.30;;
77332;SDS011;66408;51.326;12.070;2023-02-17T04:55:01;8.98;;;4.63;;
77332;SDS011;66408;51.326;12.070;2023-02-17T04:57:27;10.15;;;4.90;;
77332;SDS011;66408;51.326;12.070;2023-02-17T04:59:54;7.97;;;4.38;;
77332;SDS011;66408;51.326;12.070;2023-02-17T05:02:20;9.13;;;4.95;;
77332;SDS011;66408;51.326;12.070;2023-02-17T05:04:47;12.80;;;5.95;;
77332;SDS011;66408;51.326;12.070;2023-02-17T05:07:13;8.30;;;4.55;;
77332;SDS011;66408;51.326;12.070;2023-02-17T05:09:40;10.45;;;4.70;;
77332;SDS011;66408;51.326;12.070;2023-02-17T05:12:06;10.35;;;4.80;;
77332;SDS011;66408;51.326;12.070;2023-02-17T05:14:33;5.82;;;3.83;;
77332;SDS011;66408;51.326;12.070;2023-02-17T05:16:59;8.13;;;4.53;;
77332;SDS011;66408;51.326;12.070;2023-02-17T05:19:26;9.13;;;4.57;;
77332;SDS011;66408;51.326;12.070;2023-02-17T05:21:52;9.30;;;4.63;;
77332;SDS011;66408;51.326;12.070;2023-02-17T05:24:19;9.23;;;4.45;;
77332;SDS011;66408;51.326;12.070;2023-02-17T05:26:45;9.52;;;4.80;;
77332;SDS011;66408;51.326;12.070;2023-02-17T05:29:12;9.77;;;4.75;;
77332;SDS011;66408;51.326;12.070;2023-02-17T05:31:38;6.78;;;3.97;;
77332;SDS011;66408;51.326;12.070;2023-02-17T05:34:05;8.27;;;4.38;;
77332;SDS011;66408;51.326;12.070;2023-02-17T05:36:31;8.68;;;4.40;;
77332;SDS011;66408;51.326;12.070;2023-02-17T05:38:58;8.80;;;3.63;;
77332;SDS011;66408;51.326;12.070;2023-02-17T05:41:24;7.03;;;4.20;;
77332;SDS011;66408;51.326;12.070;2023-02-17T05:43:51;8.07;;;4.18;;
77332;SDS011;66408;51.326;12.070;2023-02-17T05:46:17;8.10;;;4.15;;
77332;SDS011;66408;51.326;12.070;2023-02-17T05:48:44;9.20;;;4.45;;
77332;SDS011;66408;51.326;12.070;2023-02-17T05:51:11;8.35;;;4.28;;
77332;SDS011;66408;51.326;12.070;2023-02-17T05:53:42;7.20;;;3.95;;
77332;SDS011;66408;51.326;12.070;2023-02-17T05:56:09;7.60;;;3.92;;
77332;SDS011;66408;51.326;12.070;2023-02-17T05:58:36;7.25;;;3.70;;
77332;SDS011;66408;51.326;12.070;2023-02-17T06:01:06;7.13;;;3.75;;
77332;SDS011;66408;51.326;12.070;2023-02-17T06:03:37;7.53;;;4.07;;
77332;SDS011;66408;51.326;12.070;2023-02-17T06:06:04;8.75;;;3.88;;
77332;SDS011;66408;51.326;12.070;2023-02-17T06:08:33;7.97;;;4.03;;
77332;SDS011;66408;51.326;12.070;2023-02-17T06:11:00;6.80;;;3.80;;
77332;SDS011;66408;51.326;12.070;2023-02-17T06:13:26;9.00;;;4.10;;
77332;SDS011;66408;51.326;12.070;2023-02-17T06:15:53;9.07;;;4.25;;
77332;SDS011;66408;51.326;12.070;2023-02-17T06:18:22;8.52;;;3.72;;
77332;SDS011;66408;51.326;12.070;2023-02-17T06:20:49;14.30;;;4.05;;
77332;SDS011;66408;51.326;12.070;2023-02-17T06:23:16;8.13;;;4.50;;
77332;SDS011;66408;51.326;12.070;2023-02-17T06:25:42;8.50;;;3.83;;
77332;SDS011;66408;51.326;12.070;2023-02-17T06:28:09;8.93;;;4.38;;
77332;SDS011;66408;51.326;12.070;2023-02-17T06:30:35;10.23;;;4.70;;
77332;SDS011;66408;51.326;12.070;2023-02-17T06:33:01;8.88;;;4.63;;
77332;SDS011;66408;51.326;12.070;2023-02-17T06:35:28;9.48;;;5.28;;
77332;SDS011;66408;51.326;12.070;2023-02-17T06:37:55;8.32;;;4.32;;
77332;SDS011;66408;51.326;12.070;2023-02-17T06:40:22;7.78;;;4.20;;
77332;SDS011;66408;51.326;12.070;2023-02-17T06:42:49;7.10;;;4.13;;
77332;SDS011;66408;51.326;12.070;2023-02-17T06:45:15;10.13;;;4.40;;
77332;SDS011;66408;51.326;12.070;2023-02-17T06:47:42;8.52;;;4.10;;
77332;SDS011;66408;51.326;12.070;2023-02-17T06:50:09;8.65;;;4.50;;
77332;SDS011;66408;51.326;12.070;2023-02-17T06:52:36;8.27;;;4.28;;
77332;SDS011;66408;51.326;12.070;2023-02-17T06:55:03;9.73;;;4.47;;
77332;SDS011;66408;51.326;12.070;2023-02-17T06:57:30;9.57;;;4.20;;
77332;SDS011;66408;51.326;12.070;2023-02-17T06:59:56;9.23;;;4.18;;
77332;SDS011;66408;51.326;12.070;2023-02-17T07:02:23;9.27;;;4.07;;
77332;SDS011;66408;51.326;12.070;2023-02-17T07:04:49;7.43;;;3.88;;
77332;SDS011;66408;51.326;12.070;2023-02-17T07:07:16;8.90;;;4.40;;
77332;SDS011;66408;51.326;12.070;2023-02-17T07:09:42;8.75;;;4.70;;
77332;SDS011;66408;51.326;12.070;2023-02-17T07:12:09;8.75;;;4.32;;
77332;SDS011;66408;51.326;12.070;2023-02-17T07:14:35;8.10;;;4.65;;
77332;SDS011;66408;51.326;12.070;2023-02-17T07:17:02;8.48;;;4.47;;
77332;SDS011;66408;51.326;12.070;2023-02-17T07:19:28;6.13;;;3.75;;
77332;SDS011;66408;51.326;12.070;2023-02-17T07:21:55;8.32;;;4.30;;
77332;SDS011;66408;51.326;12.070;2023-02-17T07:24:22;8.52;;;4.43;;
77332;SDS011;66408;51.326;12.070;2023-02-17T07:26:48;9.15;;;4.35;;
77332;SDS011;66408;51.326;12.070;2023-02-17T07:29:15;6.82;;;4.13;;
77332;SDS011;66408;51.326;12.070;2023-02-17T07:31:41;8.63;;;4.00;;
77332;SDS011;66408;51.326;12.070;2023-02-17T07:34:08;8.60;;;4.57;;
77332;SDS011;66408;51.326;12.070;2023-02-17T07:36:34;8.15;;;4.38;;
77332;SDS011;66408;51.326;12.070;2023-02-17T07:39:01;9.25;;;3.75;;
77332;SDS011;66408;51.326;12.070;2023-02-17T07:41:29;9.40;;;4.45;;
77332;SDS011;66408;51.326;12.070;2023-02-17T07:43:58;5.75;;;3.25;;
77332;SDS011;66408;51.326;12.070;2023-02-17T07:46:25;5.82;;;3.20;;
77332;SDS011;66408;51.326;12.070;2023-02-17T07:48:56;7.85;;;4.07;;
77332;SDS011;66408;51.326;12.070;2023-02-17T07:51:25;8.80;;;4.18;;
77332;SDS011;66408;51.326;12.070;2023-02-17T07:53:52;9.55;;;4.65;;
77332;SDS011;66408;51.326;12.070;2023-02-17T07:56:19;9.90;;;4.18;;
77332;SDS011;66408;51.326;12.070;2023-02-17T07:58:49;7.65;;;4.32;;
77332;SDS011;66408;51.326;12.070;2023-02-17T08:03:44;8.90;;;4.90;;
77332;SDS011;66408;51.326;12.070;2023-02-17T08:06:12;8.02;;;4.18;;
77332;SDS011;66408;51.326;12.070;2023-02-17T08:08:40;9.45;;;4.88;;
77332;SDS011;66408;51.326;12.070;2023-02-17T08:11:25;6.45;;;3.88;;
77332;SDS011;66408;51.326;12.070;2023-02-17T08:14:14;8.25;;;4.22;;
77332;SDS011;66408;51.326;12.070;2023-02-17T08:16:41;6.20;;;3.65;;
77332;SDS011;66408;51.326;12.070;2023-02-17T08:19:08;6.13;;;3.72;;
77332;SDS011;66408;51.326;12.070;2023-02-17T08:21:34;7.03;;;3.40;;
77332;SDS011;66408;51.326;12.070;2023-02-17T08:24:01;8.02;;;4.30;;
77332;SDS011;66408;51.326;12.070;2023-02-17T08:26:27;6.05;;;3.35;;
77332;SDS011;66408;51.326;12.070;2023-02-17T08:28:54;6.07;;;3.17;;
77332;SDS011;66408;51.326;12.070;2023-02-17T08:31:25;6.57;;;3.17;;
77332;SDS011;66408;51.326;12.070;2023-02-17T08:33:54;6.80;;;3.38;;
77332;SDS011;66408;51.326;12.070;2023-02-17T08:36:21;5.72;;;3.08;;
77332;SDS011;66408;51.326;12.070;2023-02-17T08:38:53;4.78;;;2.83;;
77332;SDS011;66408;51.326;12.070;2023-02-17T08:41:24;5.57;;;3.13;;
77332;SDS011;66408;51.326;12.070;2023-02-17T08:43:59;5.78;;;3.10;;
77332;SDS011;66408;51.326;12.070;2023-02-17T08:46:28;6.53;;;2.88;;
77332;SDS011;66408;51.326;12.070;2023-02-17T08:48:55;4.80;;;2.70;;
77332;SDS011;66408;51.326;12.070;2023-02-17T08:51:22;5.72;;;3.05;;
77332;SDS011;66408;51.326;12.070;2023-02-17T08:53:52;5.30;;;2.72;;
77332;SDS011;66408;51.326;12.070;2023-02-17T08:56:23;5.03;;;3.00;;
77332;SDS011;66408;51.326;12.070;2023-02-17T08:58:51;5.70;;;3.05;;
77332;SDS011;66408;51.326;12.070;2023-02-17T09:01:19;4.82;;;2.55;;
77332;SDS011;66408;51.326;12.070;2023-02-17T09:03:46;5.30;;;2.75;;
77332;SDS011;66408;51.326;12.070;2023-02-17T09:06:14;6.38;;;2.90;;
77332;SDS011;66408;51.326;12.070;2023-02-17T09:08:42;5.82;;;3.38;;
77332;SDS011;66408;51.326;12.070;2023-02-17T09:11:09;6.55;;;3.45;;
77332;SDS011;66408;51.326;12.070;2023-02-17T09:13:36;5.55;;;3.10;;
77332;SDS011;66408;51.326;12.070;2023-02-17T09:16:02;5.25;;;3.40;;
77332;SDS011;66408;51.326;12.070;2023-02-17T09:18:30;5.47;;;3.35;;
77332;SDS011;66408;51.326;12.070;2023-02-17T09:20:56;5.03;;;3.25;;
77332;SDS011;66408;51.326;12.070;2023-02-17T09:23:25;6.53;;;3.20;;
77332;SDS011;66408;51.326;12.070;2023-02-17T09:26:03;7.20;;;3.20;;
77332;SDS011;66408;51.326;12.070;2023-02-17T09:28:31;5.97;;;3.00;;
77332;SDS011;66408;51.326;12.070;2023-02-17T09:30:58;6.38;;;2.97;;
77332;SDS011;66408;51.326;12.070;2023-02-17T09:33:53;6.72;;;3.45;;
77332;SDS011;66408;51.326;12.070;2023-02-17T09:36:21;6.28;;;3.38;;
77332;SDS011;66408;51.326;12.070;2023-02-17T09:38:50;5.65;;;3.20;;
77332;SDS011;66408;51.326;12.070;2023-02-17T09:41:18;8.50;;;3.17;;
77332;SDS011;66408;51.326;12.070;2023-02-17T09:44:04;5.50;;;3.17;;
77332;SDS011;66408;51.326;12.070;2023-02-17T09:46:36;5.22;;;3.30;;
77332;SDS011;66408;51.326;12.070;2023-02-17T09:49:27;5.57;;;2.75;;
77332;SDS011;66408;51.326;12.070;2023-02-17T09:54:48;7.07;;;3.55;;
77332;SDS011;66408;51.326;12.070;2023-02-17T09:57:27;4.85;;;3.08;;
77332;SDS011;66408;51.326;12.070;2023-02-17T09:59:57;5.30;;;2.95;;
77332;SDS011;66408;51.326;12.070;2023-02-17T10:02:45;6.40;;;2.83;;
77332;SDS011;66408;51.326;12.070;2023-02-17T10:05:23;5.93;;;2.88;;
77332;SDS011;66408;51.326;12.070;2023-02-17T10:08:05;5.63;;;3.38;;
77332;SDS011;66408;51.326;12.070;2023-02-17T10:13:15;6.47;;;3.22;;
77332;SDS011;66408;51.326;12.070;2023-02-17T10:15:47;7.05;;;3.25;;
77332;SDS011;66408;51.326;12.070;2023-02-17T10:18:18;5.20;;;3.08;;
77332;SDS011;66408;51.326;12.070;2023-02-17T10:20:57;6.05;;;3.28;;
77332;SDS011;66408;51.326;12.070;2023-02-17T10:23:27;5.60;;;3.00;;
77332;SDS011;66408;51.326;12.070;2023-02-17T10:33:51;5.07;;;2.67;;
77332;SDS011;66408;51.326;12.070;2023-02-17T10:39:14;4.55;;;2.83;;
77332;SDS011;66408;51.326;12.070;2023-02-17T10:41:52;5.57;;;3.08;;
77332;SDS011;66408;51.326;12.070;2023-02-17T10:44:21;4.78;;;2.58;;
77332;SDS011;66408;51.326;12.070;2023-02-17T10:46:50;4.50;;;2.78;;
77332;SDS011;66408;51.326;12.070;2023-02-17T10:52:04;4.55;;;2.75;;
77332;SDS011;66408;51.326;12.070;2023-02-17T10:55:24;5.85;;;2.70;;
77332;SDS011;66408;51.326;12.070;2023-02-17T10:57:48;5.60;;;2.88;;
77332;SDS011;66408;51.326;12.070;2023-02-17T11:00:22;4.63;;;2.75;;
77332;SDS011;66408;51.326;12.070;2023-02-17T11:02:49;4.75;;;2.50;;
77332;SDS011;66408;51.326;12.070;2023-02-17T11:05:30;4.75;;;2.63;;
77332;SDS011;66408;51.326;12.070;2023-02-17T11:08:03;4.60;;;2.47;;
77332;SDS011;66408;51.326;12.070;2023-02-17T11:10:33;5.93;;;2.85;;
77332;SDS011;66408;51.326;12.070;2023-02-17T11:13:03;5.53;;;2.42;;
77332;SDS011;66408;51.326;12.070;2023-02-17T11:15:44;5.28;;;2.72;;
77332;SDS011;66408;51.326;12.070;2023-02-17T11:18:17;3.97;;;2.72;;
77332;SDS011;66408;51.326;12.070;2023-02-17T11:20:47;4.75;;;2.75;;
77332;SDS011;66408;51.326;12.070;2023-02-17T11:25:40;5.28;;;2.22;;
77332;SDS011;66408;51.326;12.070;2023-02-17T11:28:12;3.45;;;2.30;;
77332;SDS011;66408;51.326;12.070;2023-02-17T11:30:47;3.60;;;2.25;;
77332;SDS011;66408;51.326;12.070;2023-02-17T11:33:19;3.70;;;2.40;;
77332;SDS011;66408;51.326;12.070;2023-02-17T11:36:05;4.70;;;2.55;;
77332;SDS011;66408;51.326;12.070;2023-02-17T11:41:03;4.55;;;2.03;;
77332;SDS011;66408;51.326;12.070;2023-02-17T11:43:33;3.97;;;2.17;;
77332;SDS011;66408;51.326;12.070;2023-02-17T11:48:43;2.92;;;1.80;;
77332;SDS011;66408;51.326;12.070;2023-02-17T11:51:33;2.53;;;2.03;;
77332;SDS011;66408;51.326;12.070;2023-02-17T11:56:51;3.30;;;1.80;;
77332;SDS011;66408;51.326;12.070;2023-02-17T11:59:43;4.00;;;2.10;;
77332;SDS011;66408;51.326;12.070;2023-02-17T12:08:09;3.13;;;2.00;;
77332;SDS011;66408;51.326;12.070;2023-02-17T12:10:58;3.65;;;2.35;;
77332;SDS011;66408;51.326;12.070;2023-02-17T12:13:38;4.30;;;1.98;;
77332;SDS011;66408;51.326;12.070;2023-02-17T12:22:23;4.07;;;1.73;;
77332;SDS011;66408;51.326;12.070;2023-02-17T12:33:18;3.30;;;1.90;;
77332;SDS011;66408;51.326;12.070;2023-02-17T12:35:56;4.60;;;2.17;;
77332;SDS011;66408;51.326;12.070;2023-02-17T12:38:29;3.25;;;1.83;;
77332;SDS011;66408;51.326;12.070;2023-02-17T12:43:36;4.50;;;2.35;;
77332;SDS011;66408;51.326;12.070;2023-02-17T12:46:09;3.70;;;1.80;;
77332;SDS011;66408;51.326;12.070;2023-02-17T12:48:44;3.40;;;1.90;;
77332;SDS011;66408;51.326;12.070;2023-02-17T12:53:58;3.03;;;1.80;;
77332;SDS011;66408;51.326;12.070;2023-02-17T12:59:17;3.67;;;2.33;;
77332;SDS011;66408;51.326;12.070;2023-02-17T13:01:48;3.30;;;1.80;;
77332;SDS011;66408;51.326;12.070;2023-02-17T13:04:25;3.10;;;1.88;;
77332;SDS011;66408;51.326;12.070;2023-02-17T13:07:03;2.90;;;1.63;;
77332;SDS011;66408;51.326;12.070;2023-02-17T13:09:36;3.30;;;1.73;;
77332;SDS011;66408;51.326;12.070;2023-02-17T13:14:50;4.13;;;1.70;;
77332;SDS011;66408;51.326;12.070;2023-02-17T13:19:58;3.20;;;1.65;;
77332;SDS011;66408;51.326;12.070;2023-02-17T13:22:45;2.58;;;1.50;;
77332;SDS011;66408;51.326;12.070;2023-02-17T13:25:26;3.40;;;1.98;;
77332;SDS011;66408;51.326;12.070;2023-02-17T13:27:58;2.60;;;1.38;;
77332;SDS011;66408;51.326;12.070;2023-02-17T13:35:50;3.38;;;2.30;;
77332;SDS011;66408;51.326;12.070;2023-02-17T13:38:30;3.92;;;1.88;;
77332;SDS011;66408;51.326;12.070;2023-02-17T13:40:59;2.67;;;1.52;;
77332;SDS011;66408;51.326;12.070;2023-02-17T13:43:29;2.75;;;1.88;;
77332;SDS011;66408;51.326;12.070;2023-02-17T13:46:05;3.80;;;1.90;;
77332;SDS011;66408;51.326;12.070;2023-02-17T13:48:34;3.55;;;1.75;;
77332;SDS011;66408;51.326;12.070;2023-02-17T13:51:01;3.05;;;1.63;;
77332;SDS011;66408;51.326;12.070;2023-02-17T13:56:07;3.05;;;1.40;;
77332;SDS011;66408;51.326;12.070;2023-02-17T13:58:37;2.70;;;1.27;;
77332;SDS011;66408;51.326;12.070;2023-02-17T14:01:07;3.85;;;1.40;;
77332;SDS011;66408;51.326;12.070;2023-02-17T14:06:06;2.30;;;1.40;;
77332;SDS011;66408;51.326;12.070;2023-02-17T14:08:38;3.13;;;1.45;;
77332;SDS011;66408;51.326;12.070;2023-02-17T14:11:10;2.70;;;1.40;;
77332;SDS011;66408;51.326;12.070;2023-02-17T14:13:41;2.70;;;1.60;;
77332;SDS011;66408;51.326;12.070;2023-02-17T14:21:38;3.88;;;1.55;;
77332;SDS011;66408;51.326;12.070;2023-02-17T14:24:20;1.83;;;1.20;;
77332;SDS011;66408;51.326;12.070;2023-02-17T14:26:49;2.25;;;1.35;;
77332;SDS011;66408;51.326;12.070;2023-02-17T14:29:16;1.90;;;1.10;;
77332;SDS011;66408;51.326;12.070;2023-02-17T14:31:46;3.30;;;1.50;;
77332;SDS011;66408;51.326;12.070;2023-02-17T14:34:25;2.58;;;1.30;;
77332;SDS011;66408;51.326;12.070;2023-02-17T14:36:53;2.22;;;1.20;;
77332;SDS011;66408;51.326;12.070;2023-02-17T14:39:20;2.60;;;1.30;;
77332;SDS011;66408;51.326;12.070;2023-02-17T14:41:47;2.75;;;1.30;;
77332;SDS011;66408;51.326;12.070;2023-02-17T14:44:13;2.13;;;1.17;;
77332;SDS011;66408;51.326;12.070;2023-02-17T14:46:40;1.95;;;1.10;;
77332;SDS011;66408;51.326;12.070;2023-02-17T14:49:06;2.10;;;1.20;;
77332;SDS011;66408;51.326;12.070;2023-02-17T14:51:34;2.70;;;1.27;;
77332;SDS011;66408;51.326;12.070;2023-02-17T14:56:35;2.40;;;1.20;;
77332;SDS011;66408;51.326;12.070;2023-02-17T14:59:05;2.17;;;1.20;;
77332;SDS011;66408;51.326;12.070;2023-02-17T15:01:32;2.60;;;1.40;;
77332;SDS011;66408;51.326;12.070;2023-02-17T15:03:58;2.28;;;1.08;;
77332;SDS011;66408;51.326;12.070;2023-02-17T15:06:26;2.95;;;1.35;;
77332;SDS011;66408;51.326;12.070;2023-02-17T15:09:04;3.70;;;1.40;;
77332;SDS011;66408;51.326;12.070;2023-02-17T15:11:36;3.03;;;1.30;;
77332;SDS011;66408;51.326;12.070;2023-02-17T15:14:05;2.00;;;1.25;;
77332;SDS011;66408;51.326;12.070;2023-02-17T15:16:32;2.97;;;1.45;;
77332;SDS011;66408;51.326;12.070;2023-02-17T15:18:58;2.15;;;1.30;;
77332;SDS011;66408;51.326;12.070;2023-02-17T15:21:32;2.50;;;1.30;;
77332;SDS011;66408;51.326;12.070;2023-02-17T15:24:00;2.80;;;1.20;;
77332;SDS011;66408;51.326;12.070;2023-02-17T15:26:28;1.92;;;1.13;;
77332;SDS011;66408;51.326;12.070;2023-02-17T15:28:56;2.35;;;1.30;;
77332;SDS011;66408;51.326;12.070;2023-02-17T15:31:23;1.85;;;1.00;;
77332;SDS011;66408;51.326;12.070;2023-02-17T15:33:55;2.10;;;1.00;;
77332;SDS011;66408;51.326;12.070;2023-02-17T15:36:24;3.00;;;1.20;;
77332;SDS011;66408;51.326;12.070;2023-02-17T15:38:53;2.33;;;1.13;;
77332;SDS011;66408;51.326;12.070;2023-02-17T15:41:21;2.20;;;1.25;;
77332;SDS011;66408;51.326;12.070;2023-02-17T15:43:51;2.05;;;1.05;;
77332;SDS011;66408;51.326;12.070;2023-02-17T15:46:21;1.80;;;1.00;;
77332;SDS011;66408;51.326;12.070;2023-02-17T15:48:54;2.50;;;1.30;;
77332;SDS011;66408;51.326;12.070;2023-02-17T15:51:21;2.05;;;1.20;;
77332;SDS011;66408;51.326;12.070;2023-02-17T15:53:50;2.30;;;1.05;;
77332;SDS011;66408;51.326;12.070;2023-02-17T15:56:18;2.20;;;1.10;;
77332;SDS011;66408;51.326;12.070;2023-02-17T15:58:47;1.85;;;0.90;;
77332;SDS011;66408;51.326;12.070;2023-02-17T16:01:16;2.78;;;1.15;;
77332;SDS011;66408;51.326;12.070;2023-02-17T16:03:53;2.42;;;1.00;;
77332;SDS011;66408;51.326;12.070;2023-02-17T16:06:20;2.00;;;1.10;;
77332;SDS011;66408;51.326;12.070;2023-02-17T16:08:47;2.17;;;1.05;;
77332;SDS011;66408;51.326;12.070;2023-02-17T16:11:13;2.90;;;1.38;;
77332;SDS011;66408;51.326;12.070;2023-02-17T16:13:41;2.92;;;1.17;;
77332;SDS011;66408;51.326;12.070;2023-02-17T16:18:47;3.08;;;1.35;;
77332;SDS011;66408;51.326;12.070;2023-02-17T16:21:14;2.30;;;1.40;;
77332;SDS011;66408;51.326;12.070;2023-02-17T16:23:41;4.03;;;1.60;;
77332;SDS011;66408;51.326;12.070;2023-02-17T16:26:17;3.25;;;1.67;;
77332;SDS011;66408;51.326;12.070;2023-02-17T16:28:50;2.30;;;1.33;;
77332;SDS011;66408;51.326;12.070;2023-02-17T16:31:17;2.10;;;1.35;;
77332;SDS011;66408;51.326;12.070;2023-02-17T16:33:43;2.42;;;1.05;;
77332;SDS011;66408;51.326;12.070;2023-02-17T16:36:17;1.73;;;1.17;;
77332;SDS011;66408;51.326;12.070;2023-02-17T16:38:47;2.03;;;1.13;;
77332;SDS011;66408;51.326;12.070;2023-02-17T16:41:16;2.20;;;1.00;;